Time;durP1;ratioP1;P1;durP2;ratioP2;P2;SDS_P1;SDS_P2;PMS_P1;PMS_P2;Temp;Humidity;BMP_temperature;BMP_pressure;BME280_temperature;BME280_humidity;BME280_pressure;Samples;Min_cycle;Max_cycle;Signal;HPM_P1;HPM_P2
2023/04/29 00:02:14;;;;;;;12.73;5.05;;;;;;;7.53;52.23;93972.91;5145588;27;20051;-77
2023/04/29 00:04:39;;;;;;;20.55;5.43;;;;;;;7.52;52.57;93973.19;5145925;27;20027;-78
2023/04/29 00:07:07;;;;;;;13.43;5.53;;;;;;;7.48;52.11;93980.16;5145960;27;20075;-78
2023/04/29 00:09:32;;;;;;;14.90;5.40;;;;;;;7.47;52.56;93971.41;5145862;27;20050;-77
2023/04/29 00:11:58;;;;;;;16.50;5.88;;;;;;;7.40;52.80;93978.94;5145489;27;20030;-77
2023/04/29 00:14:23;;;;;;;14.73;6.00;;;;;;;7.38;53.48;93981.09;5145556;27;20072;-78
2023/04/29 00:16:49;;;;;;;16.35;6.22;;;;;;;7.35;53.64;93979.03;5145355;27;20072;-76
2023/04/29 00:19:14;;;;;;;18.58;6.47;;;;;;;7.29;53.61;93986.28;5145160;27;20090;-76
2023/04/29 00:21:40;;;;;;;15.32;6.60;;;;;;;7.23;53.88;93980.25;5145293;27;20086;-76
2023/04/29 00:24:06;;;;;;;20.33;6.55;;;;;;;7.18;54.28;93982.97;5145284;27;20100;-77
2023/04/29 00:26:31;;;;;;;21.15;7.15;;;;;;;7.19;55.06;93986.44;5145506;27;20217;-77
2023/04/29 00:28:56;;;;;;;17.02;6.57;;;;;;;7.13;55.33;93984.94;5145419;27;20051;-77
2023/04/29 00:31:22;;;;;;;12.70;5.35;;;;;;;7.06;55.05;93989.78;5145435;27;20019;-79
2023/04/29 00:33:47;;;;;;;16.90;5.90;;;;;;;7.01;55.34;94002.03;5145687;27;20027;-81
2023/04/29 00:36:13;;;;;;;11.77;5.55;;;;;;;6.87;55.42;93987.94;5145296;27;20023;-80
2023/04/29 00:38:38;;;;;;;13.38;5.20;;;;;;;6.82;55.23;93988.78;5144980;27;20098;-75
2023/04/29 00:41:04;;;;;;;16.88;4.90;;;;;;;6.71;55.21;93984.69;5145016;27;20066;-75
2023/04/29 00:43:30;;;;;;;10.90;5.35;;;;;;;6.63;55.54;93986.13;5145003;27;20140;-78
2023/04/29 00:45:56;;;;;;;18.60;5.75;;;;;;;6.60;56.27;93981.41;5145132;27;20030;-78
2023/04/29 00:48:21;;;;;;;14.93;6.00;;;;;;;6.53;56.71;93966.91;5144827;27;20324;-77
2023/04/29 00:50:47;;;;;;;22.25;6.63;;;;;;;6.50;57.26;93968.28;5144707;27;20023;-77
2023/04/29 00:53:13;;;;;;;15.70;6.35;;;;;;;6.48;57.41;93965.13;5144791;27;20033;-77
2023/04/29 00:55:39;;;;;;;15.15;7.38;;;;;;;6.45;57.70;93970.97;5144750;27;20023;-77
2023/04/29 00:58:05;;;;;;;14.18;6.20;;;;;;;6.48;58.19;93956.41;5144713;27;20034;-78
2023/04/29 01:00:31;;;;;;;15.25;6.05;;;;;;;6.48;57.89;93959.84;5145018;27;20023;-77
2023/04/29 01:02:58;;;;;;;11.25;5.40;;;;;;;6.37;58.02;93953.88;5144335;27;20464;-77
2023/04/29 01:05:24;;;;;;;11.75;6.03;;;;;;;6.33;57.96;93950.22;5144823;27;20083;-80
2023/04/29 01:08:16;;;;;;;10.32;5.50;;;;;;;6.34;57.50;93941.22;5144274;27;20026;-78
2023/04/29 01:10:53;;;;;;;12.30;5.67;;;;;;;6.34;57.34;93943.06;5144564;27;20027;-77
2023/04/29 01:13:49;;;;;;;13.05;5.68;;;;;;;6.34;57.52;93943.06;5144550;27;20292;-77
2023/04/29 01:16:28;;;;;;;16.17;5.25;;;;;;;6.33;57.82;93941.47;5144270;27;20139;-77
2023/04/29 01:18:56;;;;;;;13.13;5.38;;;;;;;6.33;58.30;93931.72;5144322;27;20042;-77
2023/04/29 01:21:24;;;;;;;14.63;5.05;;;;;;;6.31;58.09;93938.34;5143688;27;20160;-77
2023/04/29 01:23:55;;;;;;;18.55;5.57;;;;;;;6.29;58.33;93936.00;5144299;27;20034;-77
2023/04/29 01:26:21;;;;;;;16.73;5.63;;;;;;;6.28;58.03;93933.63;5144236;27;20027;-76
2023/04/29 01:29:01;;;;;;;13.15;5.15;;;;;;;6.22;58.13;93928.38;5144212;27;20034;-76
2023/04/29 01:31:29;;;;;;;16.05;4.97;;;;;;;6.22;58.43;93941.59;5144009;27;20027;-76
2023/04/29 01:34:13;;;;;;;9.05;4.45;;;;;;;6.23;58.48;93939.78;5144065;27;20090;-77
2023/04/29 01:37:26;;;;;;;8.90;4.43;;;;;;;6.19;58.62;93934.25;5143905;27;20011;-77
2023/04/29 01:40:11;;;;;;;12.85;5.25;;;;;;;6.14;59.16;93939.59;5130289;27;20065;-78
2023/04/29 01:43:00;;;;;;;11.13;4.55;;;;;;;6.10;59.14;93935.16;5144350;27;20136;-77
2023/04/29 01:45:27;;;;;;;10.75;4.07;;;;;;;6.05;58.82;93933.34;5135925;27;20031;-78
2023/04/29 01:47:55;;;;;;;9.30;4.63;;;;;;;6.02;57.73;93931.25;5143888;27;20015;-78
2023/04/29 01:50:20;;;;;;;12.98;4.45;;;;;;;6.03;57.94;93932.84;5143925;27;20019;-76
2023/04/29 01:52:46;;;;;;;10.02;3.70;;;;;;;6.04;58.12;93931.78;5143575;27;20060;-76
2023/04/29 01:55:11;;;;;;;13.32;3.95;;;;;;;5.97;57.83;93926.81;5143760;28;20050;-76
2023/04/29 01:57:36;;;;;;;6.70;3.35;;;;;;;5.96;57.44;93922.63;5143647;28;20258;-76
2023/04/29 02:00:03;;;;;;;8.57;3.90;;;;;;;5.95;57.94;93930.84;5143602;28;20261;-77
2023/04/29 02:02:29;;;;;;;7.43;4.10;;;;;;;5.95;57.89;93930.84;5143522;28;20043;-77
2023/04/29 02:04:54;;;;;;;10.52;3.50;;;;;;;5.94;57.92;93930.03;5143511;28;20019;-77
2023/04/29 02:07:20;;;;;;;12.15;4.35;;;;;;;5.97;58.03;93928.69;5143427;28;20103;-77
2023/04/29 02:09:46;;;;;;;15.10;4.38;;;;;;;5.97;58.89;93933.97;5143290;28;20019;-76
2023/04/29 02:12:11;;;;;;;10.52;4.50;;;;;;;5.97;58.93;93934.75;5143438;28;20092;-77
2023/04/29 02:14:37;;;;;;;7.47;4.18;;;;;;;5.95;59.11;93936.13;5143529;28;20094;-77
2023/04/29 02:17:02;;;;;;;10.45;4.45;;;;;;;5.94;59.21;93939.78;5143470;28;20023;-77
2023/04/29 02:19:28;;;;;;;10.43;4.72;;;;;;;5.91;58.96;93935.84;5143341;28;20027;-77
2023/04/29 02:21:53;;;;;;;11.68;5.65;;;;;;;5.91;58.99;93935.84;5143118;28;20421;-77
2023/04/29 02:24:19;;;;;;;10.88;4.47;;;;;;;5.91;59.00;93940.38;5143223;28;20046;-77
2023/04/29 02:26:44;;;;;;;14.35;5.63;;;;;;;5.89;59.30;93945.16;5143444;28;20104;-78
2023/04/29 02:29:09;;;;;;;13.30;4.85;;;;;;;5.88;59.44;93943.56;5143463;28;20034;-79
2023/04/29 02:31:35;;;;;;;13.57;5.00;;;;;;;5.88;59.81;93941.69;5143541;28;20030;-79
2023/04/29 02:34:00;;;;;;;9.32;4.15;;;;;;;5.86;60.07;93940.41;5144731;27;20099;-79
2023/04/29 02:36:26;;;;;;;9.48;4.70;;;;;;;5.82;60.33;93932.25;5147404;27;20023;-79
2023/04/29 02:38:54;;;;;;;11.73;5.32;;;;;;;5.79;60.58;93930.94;5147375;27;20207;-79
2023/04/29 02:41:20;;;;;;;13.75;5.15;;;;;;;5.70;60.96;93924.72;5147040;27;20309;-77
2023/04/29 02:43:47;;;;;;;13.30;5.03;;;;;;;5.66;61.43;93930.81;5147171;27;20053;-77
2023/04/29 02:46:13;;;;;;;16.10;5.70;;;;;;;5.61;61.30;93929.03;5147571;27;20019;-76
2023/04/29 02:48:39;;;;;;;13.20;5.22;;;;;;;5.58;61.45;93933.03;5147179;27;20233;-77
2023/04/29 02:51:05;;;;;;;15.38;6.60;;;;;;;5.53;61.85;93933.06;5147042;27;20411;-76
2023/04/29 02:53:31;;;;;;;15.25;6.47;;;;;;;5.50;61.96;93935.50;5146968;27;20019;-76
2023/04/29 02:55:57;;;;;;;17.05;6.43;;;;;;;5.43;62.08;93933.97;5146835;27;20071;-77
2023/04/29 02:58:22;;;;;;;12.20;6.28;;;;;;;5.38;62.50;93935.84;5147014;27;20019;-77
2023/04/29 03:00:47;;;;;;;13.18;6.43;;;;;;;5.38;62.57;93951.72;5146833;27;20038;-77
2023/04/29 03:03:13;;;;;;;18.38;6.88;;;;;;;5.35;62.81;93958.34;5146831;27;20058;-77
2023/04/29 03:05:38;;;;;;;21.20;6.38;;;;;;;5.31;62.99;93959.97;5146497;27;20112;-77
2023/04/29 03:08:04;;;;;;;14.77;6.32;;;;;;;5.25;63.26;93952.34;5146851;27;20086;-77
2023/04/29 03:10:29;;;;;;;17.08;7.40;;;;;;;5.25;63.67;93953.16;5146795;27;20027;-77
2023/04/29 03:12:55;;;;;;;13.32;6.00;;;;;;;5.25;63.92;93961.09;5146770;27;20328;-77
2023/04/29 03:15:21;;;;;;;15.98;6.85;;;;;;;5.19;64.10;93948.94;5146441;27;20023;-77
2023/04/29 03:17:47;;;;;;;15.07;6.10;;;;;;;5.16;64.18;93950.28;5146562;27;20026;-77
2023/04/29 03:20:12;;;;;;;14.43;6.60;;;;;;;5.16;64.16;93952.16;5146643;27;20242;-77
2023/04/29 03:22:38;;;;;;;15.32;6.35;;;;;;;5.14;64.20;93946.34;5146720;27;20312;-77
2023/04/29 03:25:04;;;;;;;11.18;6.50;;;;;;;5.10;64.26;93947.97;5146679;27;20050;-77
2023/04/29 03:27:30;;;;;;;20.15;6.85;;;;;;;5.09;64.38;93962.25;5146678;27;20035;-77
2023/04/29 03:29:55;;;;;;;19.70;7.18;;;;;;;5.05;64.29;93969.13;5146532;27;20154;-77
2023/04/29 03:32:21;;;;;;;14.35;6.55;;;;;;;5.05;64.70;93971.78;5146337;27;20030;-77
2023/04/29 03:34:48;;;;;;;10.27;6.15;;;;;;;5.02;64.80;93995.03;5146342;27;20019;-77
2023/04/29 03:37:15;;;;;;;17.77;6.75;;;;;;;4.99;64.71;93977.13;5146268;27;20015;-77
2023/04/29 03:39:40;;;;;;;15.23;6.53;;;;;;;4.98;64.71;93975.53;5146240;27;20313;-77
2023/04/29 03:42:06;;;;;;;20.58;7.47;;;;;;;5.01;64.40;93984.78;5146218;27;20055;-77
2023/04/29 03:44:32;;;;;;;9.35;4.93;;;;;;;5.02;63.98;93984.47;5146029;27;20022;-76
2023/04/29 03:46:57;;;;;;;11.68;6.18;;;;;;;5.01;63.79;93984.78;5145863;27;20046;-76
2023/04/29 03:49:23;;;;;;;15.75;6.72;;;;;;;5.06;63.94;93982.06;5145783;27;20015;-77
2023/04/29 03:51:48;;;;;;;13.63;5.97;;;;;;;5.13;63.94;93976.47;5127617;27;20019;-77
2023/04/29 03:54:14;;;;;;;15.77;6.57;;;;;;;5.18;64.34;93973.81;5145957;27;20019;-77
2023/04/29 03:56:40;;;;;;;22.08;6.75;;;;;;;5.20;64.02;93969.81;5146059;27;20069;-76
2023/04/29 03:59:05;;;;;;;11.70;5.30;;;;;;;5.26;64.15;93973.22;5145756;27;20022;-78
2023/04/29 04:01:31;;;;;;;14.10;6.68;;;;;;;5.33;63.70;93981.63;5145878;27;20035;-77
2023/04/29 04:03:56;;;;;;;16.73;7.47;;;;;;;5.38;63.85;93975.50;5145690;27;20027;-77
2023/04/29 04:06:22;;;;;;;26.02;7.90;;;;;;;5.46;63.96;93980.19;5145667;27;20026;-77
2023/04/29 04:08:47;;;;;;;19.10;5.75;;;;;;;5.60;64.48;93977.69;5145541;27;20019;-79
2023/04/29 04:11:14;;;;;;;16.05;6.50;;;;;;;5.67;64.36;93978.16;5145349;27;20064;-79
2023/04/29 04:13:42;;;;;;;9.27;5.30;;;;;;;5.80;64.40;93984.63;5145584;27;20181;-79
2023/04/29 04:16:09;;;;;;;13.07;6.07;;;;;;;5.86;64.21;93980.09;5146100;27;20022;-79
2023/04/29 04:18:35;;;;;;;17.60;6.70;;;;;;;5.94;63.51;93982.13;5145960;27;20030;-79
2023/04/29 04:21:05;;;;;;;17.13;6.68;;;;;;;6.05;63.22;93980.22;5145679;27;20045;-79
2023/04/29 04:23:31;;;;;;;17.05;5.93;;;;;;;6.12;63.70;93989.38;5145707;27;20030;-78
2023/04/29 04:25:56;;;;;;;18.15;7.18;;;;;;;6.16;63.70;93984.31;5145143;27;20335;-77
2023/04/29 04:28:22;;;;;;;19.60;6.82;;;;;;;6.24;63.34;93981.03;5144956;27;20094;-77
2023/04/29 04:30:47;;;;;;;21.13;6.80;;;;;;;6.26;62.84;93978.91;5144916;27;20071;-77
2023/04/29 04:33:13;;;;;;;20.00;7.20;;;;;;;6.30;62.97;93976.47;5144917;27;20033;-77
2023/04/29 04:35:38;;;;;;;15.80;6.85;;;;;;;6.31;63.51;93976.19;5145100;27;20320;-77
2023/04/29 04:38:04;;;;;;;19.33;6.90;;;;;;;6.39;63.47;93985.34;5145078;27;20098;-76
2023/04/29 04:40:29;;;;;;;13.32;5.82;;;;;;;6.42;62.70;93980.28;5144856;27;20011;-77
2023/04/29 04:42:55;;;;;;;20.92;7.70;;;;;;;6.44;62.32;93990.59;5144739;27;20018;-77
2023/04/29 04:45:20;;;;;;;23.83;6.95;;;;;;;6.41;61.94;93988.50;5144711;27;20237;-77
2023/04/29 04:47:46;;;;;;;14.38;6.80;;;;;;;6.41;61.66;93986.66;5144496;27;20309;-77
2023/04/29 04:50:11;;;;;;;14.13;6.50;;;;;;;6.38;61.57;93991.72;5144584;27;20022;-77
2023/04/29 04:52:37;;;;;;;13.07;6.95;;;;;;;6.37;61.80;94000.72;5144485;27;20082;-76
2023/04/29 04:55:02;;;;;;;14.02;6.57;;;;;;;6.42;62.38;93988.22;5144720;27;20023;-77
2023/04/29 04:57:28;;;;;;;14.00;6.43;;;;;;;6.46;62.19;93988.47;5143817;27;20048;-76
2023/04/29 04:59:53;;;;;;;22.55;6.88;;;;;;;6.55;62.48;93988.59;5144485;27;20023;-77
2023/04/29 05:02:19;;;;;;;10.13;5.70;;;;;;;6.70;61.79;93985.00;5144158;27;20026;-77
2023/04/29 05:04:44;;;;;;;18.98;6.97;;;;;;;6.79;61.25;93976.09;5125834;27;20307;-76
2023/04/29 05:07:10;;;;;;;16.50;6.75;;;;;;;6.95;61.05;93970.59;5144439;27;20046;-76
2023/04/29 05:09:36;;;;;;;12.05;7.15;;;;;;;7.08;60.86;93969.09;5144369;27;20259;-77
2023/04/29 05:12:01;;;;;;;18.55;8.18;;;;;;;7.25;59.63;93957.97;5144376;27;20067;-77
2023/04/29 05:14:27;;;;;;;19.15;8.40;;;;;;;7.35;59.46;93966.56;5143880;27;20026;-76
2023/04/29 05:16:52;;;;;;;22.73;7.47;;;;;;;7.50;59.37;93962.09;5144145;27;20048;-76
2023/04/29 05:19:18;;;;;;;17.05;7.95;;;;;;;7.58;59.32;93956.88;5144017;27;20309;-76
2023/04/29 05:21:44;;;;;;;20.98;8.02;;;;;;;7.71;58.55;93955.34;5143830;27;20011;-76
2023/04/29 05:24:09;;;;;;;14.18;8.20;;;;;;;7.85;58.21;93952.72;5142224;27;20026;-76
2023/04/29 05:26:35;;;;;;;16.58;6.65;;;;;;;7.99;58.41;93942.88;5142687;27;20023;-76
2023/04/29 05:29:00;;;;;;;14.50;6.82;;;;;;;8.12;57.47;93954.63;5143028;27;20292;-76
2023/04/29 05:31:27;;;;;;;15.02;7.15;;;;;;;8.25;57.05;93950.38;5143785;27;20053;-76
2023/04/29 05:33:52;;;;;;;24.92;8.35;;;;;;;8.33;56.77;93947.03;5142285;27;20038;-76
2023/04/29 05:36:18;;;;;;;15.15;6.80;;;;;;;8.42;56.19;93939.94;5143710;27;20213;-76
2023/04/29 05:38:44;;;;;;;19.20;7.38;;;;;;;8.50;56.10;93940.34;5143870;27;20023;-76
2023/04/29 05:41:10;;;;;;;19.05;6.32;;;;;;;8.45;55.68;93938.59;5143719;27;20035;-76
2023/04/29 05:43:35;;;;;;;23.13;7.35;;;;;;;8.43;55.63;93941.53;5143691;27;20019;-76
2023/04/29 05:46:01;;;;;;;15.77;7.20;;;;;;;8.59;55.06;93934.03;5143788;27;20086;-76
2023/04/29 05:48:28;;;;;;;40.15;8.30;;;;;;;8.70;55.13;93931.16;5143597;27;20247;-76
2023/04/29 05:50:53;;;;;;;14.50;6.50;;;;;;;8.75;54.37;93947.81;5143531;27;20035;-76
2023/04/29 05:53:19;;;;;;;16.80;7.35;;;;;;;8.73;54.01;93949.16;5143501;27;20038;-76
2023/04/29 05:55:45;;;;;;;16.85;6.57;;;;;;;8.59;54.50;93949.22;5143518;28;20043;-77
2023/04/29 05:58:11;;;;;;;16.15;6.85;;;;;;;8.46;54.92;93955.31;5143497;28;20068;-76
2023/04/29 06:00:36;;;;;;;31.73;6.95;;;;;;;8.41;54.94;93957.00;5143363;28;20023;-76
2023/04/29 06:03:02;;;;;;;13.65;6.38;;;;;;;8.34;54.94;93953.13;5143419;28;20050;-76
2023/04/29 06:05:27;;;;;;;21.58;7.10;;;;;;;8.36;55.57;93959.69;5143591;28;20107;-76
2023/04/29 06:07:53;;;;;;;15.25;6.63;;;;;;;8.49;55.28;93957.34;5144666;27;20031;-76
2023/04/29 06:10:18;;;;;;;12.15;6.72;;;;;;;8.48;54.91;93947.84;5147745;27;20023;-77
2023/04/29 06:12:45;;;;;;;14.30;7.05;;;;;;;8.42;54.87;93955.13;5147384;27;20023;-77
2023/04/29 06:15:10;;;;;;;14.52;6.38;;;;;;;8.56;54.65;93947.91;5147469;27;20061;-77
2023/04/29 06:17:36;;;;;;;15.25;6.88;;;;;;;8.74;54.06;93946.22;5147588;27;20019;-76
2023/04/29 06:20:02;;;;;;;14.48;6.45;;;;;;;8.83;53.79;93943.63;5147675;27;20099;-76
2023/04/29 06:22:28;;;;;;;12.63;6.55;;;;;;;8.84;53.61;93953.97;5147318;27;20019;-76
2023/04/29 06:24:53;;;;;;;16.83;6.32;;;;;;;8.88;53.50;93950.72;5147520;27;20027;-76
2023/04/29 06:27:19;;;;;;;12.57;6.22;;;;;;;9.01;52.84;93958.63;5147453;27;20027;-76
2023/04/29 06:29:44;;;;;;;20.05;5.65;;;;;;;9.09;52.55;93959.03;5147437;27;20054;-76
2023/04/29 06:32:10;;;;;;;21.65;7.05;;;;;;;9.12;51.52;93959.22;5146998;27;20083;-77
2023/04/29 06:34:36;;;;;;;16.70;5.43;;;;;;;9.15;50.66;93952.50;5147366;27;20026;-76
2023/04/29 06:37:01;;;;;;;9.20;5.18;;;;;;;9.18;50.76;93954.53;5147386;27;20320;-77
2023/04/29 06:39:26;;;;;;;20.58;5.90;;;;;;;9.28;50.81;93957.00;5128819;27;20340;-77
2023/04/29 06:41:52;;;;;;;12.07;5.10;;;;;;;9.36;49.64;93955.47;5146990;27;20074;-79
2023/04/29 06:44:17;;;;;;;13.85;5.10;;;;;;;9.41;49.20;93958.00;5146988;27;20084;-77
2023/04/29 06:46:43;;;;;;;15.43;6.07;;;;;;;9.42;49.74;93952.41;5147146;27;20053;-74
2023/04/29 06:49:08;;;;;;;13.00;5.20;;;;;;;9.44;50.20;93947.56;5147354;27;20224;-79
2023/04/29 06:51:35;;;;;;;9.68;4.93;;;;;;;9.46;49.84;93949.88;5147191;27;20015;-78
2023/04/29 06:54:01;;;;;;;15.07;5.65;;;;;;;9.37;50.62;93947.19;5147765;27;20023;-85
2023/04/29 06:56:26;;;;;;;14.10;5.90;;;;;;;9.44;50.09;93952.06;5147390;27;20023;-78
2023/04/29 06:58:52;;;;;;;11.85;5.32;;;;;;;9.53;49.89;93941.50;5146773;27;20030;-75
2023/04/29 07:01:17;;;;;;;14.10;6.15;;;;;;;9.61;49.84;93943.44;5146559;27;20118;-76
2023/04/29 07:03:43;;;;;;;23.65;5.47;;;;;;;9.66;48.59;93945.94;5146643;27;20025;-76
2023/04/29 07:06:08;;;;;;;18.80;4.72;;;;;;;9.67;48.25;93946.72;5146720;27;20026;-77
2023/04/29 07:08:34;;;;;;;18.58;5.07;;;;;;;9.75;48.83;93941.47;5146863;27;20023;-78
2023/04/29 07:10:59;;;;;;;13.38;5.07;;;;;;;9.89;48.98;93941.38;5146130;27;20033;-78
2023/04/29 07:13:25;;;;;;;19.15;5.28;;;;;;;10.05;46.63;93933.75;5146397;27;20100;-74
2023/04/29 07:15:50;;;;;;;9.73;4.32;;;;;;;10.15;45.78;93932.72;5146677;27;20019;-72
2023/04/29 07:18:16;;;;;;;8.55;3.90;;;;;;;10.25;46.79;93927.09;5146402;27;20251;-72
2023/04/29 07:20:42;;;;;;;13.32;4.97;;;;;;;10.36;46.73;93932.94;5145781;27;20381;-72
2023/04/29 07:23:08;;;;;;;9.40;4.28;;;;;;;10.50;46.94;93933.66;5146105;27;20198;-72
2023/04/29 07:25:33;;;;;;;10.98;5.13;;;;;;;10.56;47.31;93929.75;5146489;27;20026;-72
2023/04/29 07:27:59;;;;;;;8.85;5.07;;;;;;;10.70;46.60;93931.47;5146303;27;20030;-72
2023/04/29 07:30:24;;;;;;;19.52;5.70;;;;;;;10.89;46.10;93937.31;5146180;27;20026;-72
2023/04/29 07:32:50;;;;;;;15.43;5.63;;;;;;;10.82;46.22;93939.63;5127578;27;20257;-72
2023/04/29 07:35:16;;;;;;;26.52;7.18;;;;;;;10.88;47.71;93941.06;5146495;27;20086;-78
2023/04/29 07:37:42;;;;;;;17.75;6.55;;;;;;;11.11;47.06;93939.03;5146587;27;20026;-77
2023/04/29 07:40:08;;;;;;;14.75;6.43;;;;;;;11.31;45.91;93928.81;5127994;27;20216;-77
2023/04/29 07:42:33;;;;;;;13.38;5.43;;;;;;;11.42;45.04;93938.09;5146435;27;20031;-77
2023/04/29 07:44:59;;;;;;;11.05;5.65;;;;;;;11.64;44.76;93931.75;5146303;27;20019;-76
2023/04/29 07:47:24;;;;;;;16.92;6.35;;;;;;;11.85;44.42;93940.66;5146057;27;20217;-77
2023/04/29 07:49:51;;;;;;;18.35;6.40;;;;;;;12.06;44.28;93928.53;5146248;27;20305;-77
2023/04/29 07:52:17;;;;;;;17.48;5.68;;;;;;;12.22;44.24;93926.91;5145942;27;20034;-77
2023/04/29 07:54:42;;;;;;;19.10;6.07;;;;;;;12.41;42.20;93923.81;5145759;27;20050;-76
2023/04/29 07:57:08;;;;;;;11.30;5.60;;;;;;;12.50;42.78;93918.44;5145932;27;20038;-77
2023/04/29 07:59:33;;;;;;;13.07;5.28;;;;;;;12.68;41.60;93911.88;5146216;27;20075;-77
2023/04/29 08:01:59;;;;;;;21.90;5.28;;;;;;;12.81;40.86;93910.06;5145854;27;20027;-79
2023/04/29 08:04:24;;;;;;;13.77;5.65;;;;;;;12.93;40.26;93910.13;5146029;27;20347;-81
2023/04/29 08:06:49;;;;;;;9.93;4.65;;;;;;;13.19;40.14;93917.97;5146020;27;20064;-79
2023/04/29 08:09:15;;;;;;;17.17;5.50;;;;;;;13.38;38.38;93914.06;5145658;27;20322;-79
2023/04/29 08:11:42;;;;;;;19.27;6.18;;;;;;;13.41;37.70;93908.81;5144116;27;20018;-78
2023/04/29 08:14:07;;;;;;;19.95;6.07;;;;;;;13.48;37.62;93910.97;5144001;27;20027;-79
2023/04/29 08:16:33;;;;;;;24.17;5.43;;;;;;;13.69;38.02;93904.78;5125682;27;20061;-79
2023/04/29 08:18:58;;;;;;;22.27;5.60;;;;;;;13.95;39.19;93909.84;5143691;27;20140;-78
2023/04/29 08:21:24;;;;;;;8.63;4.30;;;;;;;14.23;35.80;93907.31;5142634;27;20065;-79
2023/04/29 08:23:49;;;;;;;9.60;3.80;;;;;;;14.33;36.47;93900.72;5143449;27;20258;-79
2023/04/29 08:26:15;;;;;;;9.48;4.78;;;;;;;14.40;35.67;93899.03;5145391;27;20027;-84
2023/04/29 08:28:40;;;;;;;15.68;4.50;;;;;;;14.36;35.71;93897.38;5145024;27;20090;-78
2023/04/29 08:31:06;;;;;;;9.80;4.43;;;;;;;14.47;36.28;93893.13;5142637;27;20216;-87
2023/04/29 08:33:33;;;;;;;13.02;4.78;;;;;;;14.74;36.23;93907.00;5144004;27;20493;-87
2023/04/29 08:36:02;;;;;;;9.32;4.38;;;;;;;15.07;35.80;93900.66;5125033;27;20023;-88
2023/04/29 08:38:28;;;;;;;11.40;4.22;;;;;;;15.28;34.36;93914.69;5143571;27;20019;-88
2023/04/29 08:40:53;;;;;;;31.27;5.35;;;;;;;15.37;33.29;93906.50;5143709;27;20313;-88
2023/04/29 08:43:20;;;;;;;14.50;4.40;;;;;;;15.41;32.95;93905.47;5143318;27;20331;-87
2023/04/29 08:45:50;;;;;;;12.48;4.65;;;;;;;15.36;32.47;93900.31;5144679;27;20211;-89
2023/04/29 08:48:16;;;;;;;8.05;3.80;;;;;;;15.25;32.73;93899.25;5145045;27;20305;-90
2023/04/29 08:50:42;;;;;;;13.52;3.97;;;;;;;15.13;33.08;93891.25;5145383;27;20027;-86
2023/04/29 08:53:08;;;;;;;15.27;3.97;;;;;;;15.12;33.93;93887.78;5145515;27;20026;-87
2023/04/29 08:55:44;;;;;;;12.15;4.25;;;;;;;15.15;33.70;93886.31;5126458;27;20029;-87
2023/04/29 08:58:11;;;;;;;15.98;3.70;;;;;;;15.23;33.29;93877.34;5144645;27;20023;-88
2023/04/29 09:00:38;;;;;;;9.13;3.47;;;;;;;15.32;32.68;93877.19;5126532;27;20047;-88
2023/04/29 09:03:13;;;;;;;11.73;3.10;;;;;;;15.53;32.56;93876.97;5144914;27;20027;-87
2023/04/29 09:05:40;;;;;;;7.07;3.45;;;;;;;15.80;31.95;93875.41;5144888;27;20019;-87
2023/04/29 09:08:07;;;;;;;10.52;3.65;;;;;;;16.04;32.37;93880.63;5145166;27;20026;-88
2023/04/29 09:10:35;;;;;;;9.07;3.38;;;;;;;16.24;31.41;93873.44;5126785;27;20043;-88
2023/04/29 09:13:01;;;;;;;9.15;3.40;;;;;;;16.41;31.56;93863.44;5145387;27;20221;-87
2023/04/29 09:15:26;;;;;;;8.23;2.72;;;;;;;16.54;30.51;93872.94;5144931;27;20019;-87
2023/04/29 09:17:52;;;;;;;6.60;2.90;;;;;;;16.49;30.02;93870.53;5144560;27;20019;-87
2023/04/29 09:20:20;;;;;;;7.05;3.35;;;;;;;16.70;29.76;93869.47;5144586;27;20039;-87
2023/04/29 09:22:56;;;;;;;4.93;2.55;;;;;;;16.61;29.37;93865.06;5144781;27;20056;-87
2023/04/29 09:25:22;;;;;;;15.65;3.95;;;;;;;16.74;28.87;93862.25;5144178;27;20023;-87
2023/04/29 09:27:47;;;;;;;7.60;3.97;;;;;;;16.74;28.86;93863.03;5143905;27;20030;-87
2023/04/29 09:30:15;;;;;;;8.88;3.65;;;;;;;16.77;28.22;93856.94;5144364;27;20030;-87
2023/04/29 09:32:40;;;;;;;10.07;5.05;;;;;;;16.76;29.64;93865.38;5144464;27;20023;-88
2023/04/29 09:35:23;;;;;;;14.82;3.85;;;;;;;16.67;30.33;93857.50;5125675;27;20072;-87
2023/04/29 09:37:49;;;;;;;18.77;4.28;;;;;;;16.60;30.15;93857.31;5125989;27;20242;-88
2023/04/29 09:40:31;;;;;;;13.93;3.45;;;;;;;16.55;30.22;93849.53;5144337;27;20026;-87
2023/04/29 09:42:58;;;;;;;13.18;3.63;;;;;;;16.56;30.93;93837.63;5144147;27;20023;-87
2023/04/29 09:45:37;;;;;;;14.27;3.65;;;;;;;16.80;30.93;93845.47;5143933;27;20023;-86
2023/04/29 09:48:05;;;;;;;17.40;7.15;;;;;;;17.00;30.86;93840.13;5144110;27;20225;-77
2023/04/29 09:50:31;;;;;;;18.33;4.82;;;;;;;17.26;31.08;93839.50;5142760;27;20213;-85
2023/04/29 09:52:57;;;;;;;10.52;4.55;;;;;;;17.44;30.09;93829.84;5144052;27;20031;-84
2023/04/29 09:55:23;;;;;;;9.70;5.03;;;;;;;17.24;29.60;93836.38;5143765;27;20019;-84
2023/04/29 09:57:48;;;;;;;12.05;5.20;;;;;;;17.02;30.04;93829.78;5143251;28;20030;-84
2023/04/29 10:00:14;;;;;;;25.15;5.88;;;;;;;17.00;30.31;93835.53;5143550;28;20046;-84
2023/04/29 10:02:46;;;;;;;15.70;9.52;;;;;;;16.89;29.61;93831.06;5143363;28;20080;-80
2023/04/29 10:05:16;;;;;;;10.60;5.60;;;;;;;16.78;30.28;93830.81;5143227;28;20055;-82
2023/04/29 10:07:41;;;;;;;11.20;5.53;;;;;;;16.96;30.31;93821.22;5143431;28;20042;-82
2023/04/29 10:10:10;;;;;;;13.20;5.50;;;;;;;17.02;29.91;93817.09;5143160;28;20023;-81
2023/04/29 10:12:37;;;;;;;13.77;6.80;;;;;;;17.23;29.68;93807.88;5143422;28;20027;-80
2023/04/29 10:15:19;;;;;;;16.30;5.63;;;;;;;17.16;28.81;93803.16;5143459;28;20019;-85
2023/04/29 10:17:51;;;;;;;10.38;5.25;;;;;;;16.87;28.62;93806.41;5144249;28;20047;-93
2023/04/29 10:20:39;;;;;;;13.60;5.13;;;;;;;16.86;29.11;93794.84;5144550;28;20031;-94
2023/04/29 10:23:06;;;;;;;16.88;6.78;;;;;;;16.93;30.55;93797.69;5144031;28;20023;-86
2023/04/29 10:25:35;;;;;;;23.98;6.80;;;;;;;17.06;29.44;93801.03;5144268;28;20034;-89
2023/04/29 10:28:03;;;;;;;8.15;5.55;;;;;;;16.99;29.61;93798.94;5144786;28;20320;-91
2023/04/29 10:30:30;;;;;;;13.98;6.07;;;;;;;16.94;29.67;93799.25;5144251;28;20031;-91
2023/04/29 10:33:01;;;;;;;15.43;7.07;;;;;;;16.88;29.63;93794.50;5143918;28;20217;-91
2023/04/29 10:35:26;;;;;;;13.63;6.18;;;;;;;17.00;30.25;93794.38;5144400;28;20019;-91
2023/04/29 10:37:53;;;;;;;18.10;6.43;;;;;;;16.98;29.67;93797.41;5125968;28;20019;-90
2023/04/29 10:40:27;;;;;;;10.93;4.55;;;;;;;16.83;28.92;93796.34;5144704;28;20015;-95
2023/04/29 10:42:53;;;;;;;18.38;5.47;;;;;;;16.81;29.06;93792.44;5144321;28;20045;-93
2023/04/29 10:45:27;;;;;;;9.43;4.32;;;;;;;16.87;28.83;93801.78;5144463;28;20023;-90
2023/04/29 10:48:05;;;;;;;13.70;4.70;;;;;;;16.76;28.83;93793.47;5144034;28;20030;-91
2023/04/29 10:50:32;;;;;;;11.23;4.68;;;;;;;16.76;29.52;93795.38;5143669;28;20030;-86
2023/04/29 10:53:01;;;;;;;14.48;4.45;;;;;;;16.84;29.77;93794.44;5141546;28;20033;-88
2023/04/29 10:55:26;;;;;;;16.35;4.25;;;;;;;16.96;29.73;93796.97;5143503;27;20023;-86
2023/04/29 10:57:55;;;;;;;12.45;3.92;;;;;;;17.14;28.90;93793.88;5146544;27;20343;-86
2023/04/29 11:00:36;;;;;;;9.18;3.80;;;;;;;17.29;29.40;93795.69;5145393;27;20019;-78
2023/04/29 11:03:25;;;;;;;12.48;3.33;;;;;;;17.26;28.16;93796.41;5146779;27;20210;-89
2023/04/29 11:06:07;;;;;;;16.88;3.78;;;;;;;17.19;27.52;93788.94;5127114;27;20042;-88
2023/04/29 11:08:38;;;;;;;5.53;3.13;;;;;;;17.09;27.83;93783.38;5146052;27;20019;-82
2023/04/29 11:11:05;;;;;;;13.98;3.30;;;;;;;16.96;27.48;93780.06;5146349;27;20018;-87
2023/04/29 11:13:36;;;;;;;13.02;3.38;;;;;;;16.82;27.79;93786.72;5146811;27;20094;-86
2023/04/29 11:16:11;;;;;;;9.70;3.50;;;;;;;16.89;27.99;93786.06;5146224;27;20194;-86
2023/04/29 11:19:13;;;;;;;7.55;3.28;;;;;;;16.84;27.56;93784.44;5145604;27;20212;-86
2023/04/29 11:21:39;;;;;;;9.18;3.47;;;;;;;16.75;28.97;93783.06;5146193;27;20023;-86
2023/04/29 11:24:05;;;;;;;8.32;2.63;;;;;;;16.69;28.80;93795.22;5128094;27;20030;-86
2023/04/29 11:26:34;;;;;;;6.78;2.10;;;;;;;16.64;27.24;93789.00;5145777;27;20019;-86
2023/04/29 11:29:00;;;;;;;5.22;1.85;;;;;;;16.55;27.02;93788.44;5127882;27;20027;-86
2023/04/29 11:31:29;;;;;;;9.65;2.80;;;;;;;16.42;28.39;93779.72;5148123;27;20101;-86
2023/04/29 11:33:55;;;;;;;7.95;2.45;;;;;;;16.35;28.37;93781.47;5145420;27;20035;-86